Time;durP1;ratioP1;P1;durP2;ratioP2;P2;SDS_P1;SDS_P2;PMS_P1;PMS_P2;Temp;Humidity;BMP_temperature;BMP_pressure;BME280_temperature;BME280_humidity;BME280_pressure;Samples;Min_cycle;Max_cycle;Signal;HPM_P1;HPM_P2
2021/11/28 00:00:11;;;;;;;;;;;;;;;21.28;44.51;98431.19;2086260;28;19965;-66
2021/11/28 00:01:13;;;;;;;;;;;;;;;21.28;44.74;98431.19;2075119;28;20016;-66
2021/11/28 00:02:14;;;;;;;;;;;;;;;21.28;44.61;98435.84;2076255;28;20271;-65
2021/11/28 00:03:16;;;;;;;;;;;;;;;21.26;44.70;98433.28;2086027;28;19952;-67
2021/11/28 00:04:16;;;;;;;;;;;;;;;21.26;44.84;98438.78;2070096;28;20031;-66
2021/11/28 00:05:17;;;;;;;;;;;;;;;21.26;44.76;98436.03;2075835;28;19921;-67
2021/11/28 00:06:27;;;;;;;;;;;;;;;21.23;45.03;98428.22;2083805;28;20266;-67
2021/11/28 00:11:05;;;;;;;;;;;;;;;21.22;44.79;98431.19;2084468;28;20003;-67
2021/11/28 00:12:24;;;;;;;;;;;;;;;21.20;45.03;98431.38;2083590;28;20679;-66
2021/11/28 00:14:28;;;;;;;;;;;;;;;21.20;44.97;98439.59;2082013;28;19920;-66
2021/11/28 00:15:28;;;;;;;;;;;;;;;21.17;44.90;98435.38;2083434;28;19916;-66
2021/11/28 00:16:29;;;;;;;;;;;;;;;21.18;44.96;98430.72;2082908;28;19916;-67
2021/11/28 00:17:29;;;;;;;;;;;;;;;21.17;44.76;98440.00;2084079;28;19908;-66
2021/11/28 00:18:30;;;;;;;;;;;;;;;21.18;44.88;98436.22;2082302;28;19917;-66
2021/11/28 00:19:30;;;;;;;;;;;;;;;21.15;44.96;98434.72;2083905;28;19912;-66
2021/11/28 00:20:31;;;;;;;;;;;;;;;21.16;44.98;98435.56;2085872;28;19916;-67
2021/11/28 00:21:32;;;;;;;;;;;;;;;21.15;44.70;98437.47;2091758;28;19916;-67
2021/11/28 00:22:32;;;;;;;;;;;;;;;21.15;44.99;98442.09;2087940;28;19912;-66
2021/11/28 00:23:33;;;;;;;;;;;;;;;21.14;44.74;98443.13;2084456;28;19916;-67
2021/11/28 00:24:34;;;;;;;;;;;;;;;21.14;44.86;98443.13;2084651;28;20397;-66
2021/11/28 00:25:34;;;;;;;;;;;;;;;21.12;44.87;98437.88;2080250;28;19931;-67
2021/11/28 00:26:35;;;;;;;;;;;;;;;21.12;44.79;98435.13;2083620;28;19916;-67
2021/11/28 00:27:36;;;;;;;;;;;;;;;21.13;44.80;98438.72;2083869;28;20376;-67
2021/11/28 00:28:36;;;;;;;;;;;;;;;21.13;44.86;98430.50;2083923;28;20541;-67
2021/11/28 00:29:37;;;;;;;;;;;;;;;21.12;45.05;98431.56;2084591;28;19920;-66
2021/11/28 00:30:37;;;;;;;;;;;;;;;21.13;44.92;98434.06;2084710;28;20002;-66
2021/11/28 00:31:37;;;;;;;;;;;;;;;21.15;44.74;98431.16;2085024;28;19927;-67
2021/11/28 00:32:38;;;;;;;;;;;;;;;21.14;44.72;98434.91;2078099;28;19919;-66
2021/11/28 00:33:38;;;;;;;;;;;;;;;21.16;44.89;98432.81;2081025;28;20419;-66
2021/11/28 00:34:38;;;;;;;;;;;;;;;21.16;44.81;98435.56;2085498;28;19921;-66
2021/11/28 00:35:39;;;;;;;;;;;;;;;21.16;44.75;98438.31;2085427;28;20279;-65
2021/11/28 00:36:39;;;;;;;;;;;;;;;21.16;44.90;98441.03;2089928;28;20397;-67
2021/11/28 00:37:39;;;;;;;;;;;;;;;21.15;45.02;98436.63;2083078;28;20532;-67
2021/11/28 00:38:40;;;;;;;;;;;;;;;21.06;45.07;98448.78;2083555;28;19951;-68
2021/11/28 00:39:42;;;;;;;;;;;;;;;20.91;45.03;98457.97;2077655;28;20316;-68
2021/11/28 00:40:43;;;;;;;;;;;;;;;20.77;44.97;98451.59;2074945;28;19955;-67
2021/11/28 00:41:43;;;;;;;;;;;;;;;20.67;45.19;98451.06;2082097;28;20402;-68
2021/11/28 00:42:43;;;;;;;;;;;;;;;20.55;45.41;98442.59;2082950;28;20351;-68
2021/11/28 00:43:44;;;;;;;;;;;;;;;20.46;45.55;98449.22;2090101;28;20696;-67
2021/11/28 00:44:44;;;;;;;;;;;;;;;20.39;45.93;98447.47;2091266;28;20397;-68
2021/11/28 00:45:46;;;;;;;;;;;;;;;20.31;46.12;98437.53;2082942;28;19923;-68
2021/11/28 00:46:46;;;;;;;;;;;;;;;20.26;46.11;98437.25;2083770;28;19995;-67
2021/11/28 00:47:46;;;;;;;;;;;;;;;20.22;46.15;98441.44;2083857;28;19915;-68
2021/11/28 00:48:47;;;;;;;;;;;;;;;20.19;46.04;98448.16;2082244;28;20288;-68
2021/11/28 00:50:02;;;;;;;;;;;;;;;20.17;46.03;98432.97;2082546;28;20376;-67
2021/11/28 00:52:18;;;;;;;;;;;;;;;20.09;46.37;98437.53;2082554;28;19991;-68
2021/11/28 00:53:19;;;;;;;;;;;;;;;20.08;46.54;98444.03;2083346;28;19917;-68
2021/11/28 00:54:20;;;;;;;;;;;;;;;20.06;46.60;98437.94;2083811;28;19963;-68
2021/11/28 00:55:21;;;;;;;;;;;;;;;20.05;46.63;98430.75;2082703;28;19921;-68
2021/11/28 00:56:21;;;;;;;;;;;;;;;20.04;46.52;98434.56;2083925;28;20012;-68
2021/11/28 00:57:23;;;;;;;;;;;;;;;20.03;46.58;98424.63;2082802;28;20206;-68
2021/11/28 00:58:25;;;;;;;;;;;;;;;20.03;46.56;98430.09;2083342;28;20110;-68
2021/11/28 00:59:25;;;;;;;;;;;;;;;20.02;46.73;98427.59;2082358;28;20067;-68
2021/11/28 01:00:25;;;;;;;;;;;;;;;20.00;46.82;98425.03;2084677;28;19916;-67
2021/11/28 01:01:27;;;;;;;;;;;;;;;20.01;46.80;98423.16;2081305;28;19987;-68
2021/11/28 01:02:28;;;;;;;;;;;;;;;20.00;46.67;98422.31;2085033;28;19964;-68
2021/11/28 01:03:28;;;;;;;;;;;;;;;19.99;46.70;98426.09;2082918;28;20352;-68
2021/11/28 01:04:28;;;;;;;;;;;;;;;19.99;46.81;98428.81;2086928;28;19920;-68
2021/11/28 01:05:29;;;;;;;;;;;;;;;19.99;46.88;98427.97;2084947;28;19921;-68
2021/11/28 01:06:29;;;;;;;;;;;;;;;19.98;46.74;98429.00;2079097;28;19917;-68
2021/11/28 01:07:30;;;;;;;;;;;;;;;19.97;46.67;98425.44;2078134;28;19978;-68
2021/11/28 01:08:30;;;;;;;;;;;;;;;19.96;46.69;98423.72;2083079;28;19908;-68
2021/11/28 01:09:31;;;;;;;;;;;;;;;19.97;46.67;98430.91;2080203;28;19928;-68
2021/11/28 01:10:31;;;;;;;;;;;;;;;19.97;46.66;98425.44;2084705;28;19921;-68
2021/11/28 01:11:31;;;;;;;;;;;;;;;19.96;46.78;98421.00;2083283;28;19923;-68
2021/11/28 01:12:32;;;;;;;;;;;;;;;19.95;46.79;98424.78;2081142;28;20338;-68
2021/11/28 01:13:32;;;;;;;;;;;;;;;19.96;46.70;98426.47;2084351;28;19959;-68
2021/11/28 01:14:32;;;;;;;;;;;;;;;19.95;46.70;98422.03;2083156;28;20102;-68
2021/11/28 01:15:33;;;;;;;;;;;;;;;19.95;46.89;98427.53;2083697;28;19923;-68
2021/11/28 01:16:34;;;;;;;;;;;;;;;19.96;46.80;98428.34;2077850;28;19931;-68
2021/11/28 01:17:35;;;;;;;;;;;;;;;19.97;46.78;98433.66;2084186;28;20653;-68
2021/11/28 01:18:35;;;;;;;;;;;;;;;19.97;46.91;98438.28;2084008;28;20390;-68
2021/11/28 01:19:35;;;;;;;;;;;;;;;19.96;46.80;98431.94;2083759;28;20633;-68
2021/11/28 01:20:36;;;;;;;;;;;;;;;19.97;46.72;98439.13;2080740;28;20298;-68
2021/11/28 01:21:37;;;;;;;;;;;;;;;19.98;46.90;98439.94;2083429;28;19924;-68
2021/11/28 01:22:38;;;;;;;;;;;;;;;19.98;46.70;98431.75;2072981;28;20337;-68
2021/11/28 01:23:38;;;;;;;;;;;;;;;19.99;46.71;98437.03;2074487;28;19913;-68
2021/11/28 01:24:39;;;;;;;;;;;;;;;20.00;46.76;98437.88;2083490;28;20256;-68
2021/11/28 01:25:39;;;;;;;;;;;;;;;20.00;46.59;98432.41;2080072;28;19924;-68
2021/11/28 01:26:40;;;;;;;;;;;;;;;20.00;46.82;98433.25;2078642;28;19922;-68
2021/11/28 01:27:41;;;;;;;;;;;;;;;19.99;46.59;98437.03;2079246;28;20175;-68
2021/11/28 01:28:42;;;;;;;;;;;;;;;20.01;46.59;98439.56;2084245;28;20347;-68
2021/11/28 01:29:43;;;;;;;;;;;;;;;20.00;46.67;98444.19;2083043;28;19939;-68
2021/11/28 01:30:43;;;;;;;;;;;;;;;20.01;46.69;98443.13;2082542;28;19922;-68
2021/11/28 01:31:44;;;;;;;;;;;;;;;20.02;46.57;98441.25;2084240;28;19916;-68
2021/11/28 01:32:44;;;;;;;;;;;;;;;20.02;46.66;98442.09;2082987;28;19934;-68
2021/11/28 01:33:45;;;;;;;;;;;;;;;20.02;46.50;98446.72;2081783;28;19921;-67
2021/11/28 01:34:46;;;;;;;;;;;;;;;20.02;46.53;98442.09;2083481;28;19920;-68
2021/11/28 01:35:46;;;;;;;;;;;;;;;20.04;46.66;98447.34;2082661;28;20678;-68
2021/11/28 01:36:46;;;;;;;;;;;;;;;20.02;46.58;98449.47;2082770;28;19916;-68
2021/11/28 01:37:47;;;;;;;;;;;;;;;20.03;46.58;98443.78;2083991;28;19920;-68
2021/11/28 01:38:47;;;;;;;;;;;;;;;20.03;46.65;98446.53;2083048;28;19923;-68
2021/11/28 01:39:48;;;;;;;;;;;;;;;20.03;46.45;98454.72;2082695;28;19924;-68
2021/11/28 01:40:49;;;;;;;;;;;;;;;20.05;46.48;98451.81;2082490;28;19946;-68
2021/11/28 01:41:51;;;;;;;;;;;;;;;20.05;46.61;98452.66;2074673;28;19916;-68
2021/11/28 01:42:52;;;;;;;;;;;;;;;20.05;46.53;98447.16;2073601;28;20254;-68
2021/11/28 01:43:53;;;;;;;;;;;;;;;20.06;46.54;98458.94;2082087;28;19915;-68
2021/11/28 01:44:53;;;;;;;;;;;;;;;20.07;46.33;98456.03;2084534;28;20436;-68
2021/11/28 01:45:54;;;;;;;;;;;;;;;20.07;46.33;98461.50;2082808;28;19986;-68
2021/11/28 01:46:55;;;;;;;;;;;;;;;20.09;46.43;98456.69;2084181;28;19989;-68
2021/11/28 01:47:56;;;;;;;;;;;;;;;20.10;46.44;98454.78;2082755;28;20591;-68
2021/11/28 01:48:57;;;;;;;;;;;;;;;20.11;46.31;98460.09;2082163;28;20011;-68
2021/11/28 01:49:58;;;;;;;;;;;;;;;20.11;46.36;98472.88;2084590;28;20359;-68
2021/11/28 01:51:02;;;;;;;;;;;;;;;20.11;46.22;98467.41;2082571;28;19908;-68
2021/11/28 01:52:02;;;;;;;;;;;;;;;20.13;46.35;98468.06;2084527;28;19924;-68
2021/11/28 01:53:03;;;;;;;;;;;;;;;20.13;46.33;98468.91;2082795;28;19995;-68
2021/11/28 01:54:12;;;;;;;;;;;;;;;20.13;46.17;98471.66;2082324;28;20312;-68
2021/11/28 01:55:14;;;;;;;;;;;;;;;20.15;46.19;98462.41;2083357;28;19916;-68
2021/11/28 01:56:15;;;;;;;;;;;;;;;20.17;46.00;98463.91;2074122;28;20415;-68
2021/11/28 01:57:15;;;;;;;;;;;;;;;20.17;45.99;98466.66;2071959;28;20790;-68
2021/11/28 01:58:16;;;;;;;;;;;;;;;20.17;46.00;98465.81;2082442;28;19952;-68
2021/11/28 01:59:17;;;;;;;;;;;;;;;20.19;45.98;98463.72;2083265;28;19931;-68
2021/11/28 02:00:19;;;;;;;;;;;;;;;20.19;45.95;98463.72;2084128;28;20307;-67
2021/11/28 02:01:20;;;;;;;;;;;;;;;20.20;45.90;98465.41;2081900;28;20470;-68
2021/11/28 02:02:21;;;;;;;;;;;;;;;20.20;46.01;98462.69;2083908;28;19916;-67
2021/11/28 02:03:21;;;;;;;;;;;;;;;20.21;46.01;98467.97;2082827;28;19923;-68
2021/11/28 02:04:22;;;;;;;;;;;;;;;20.22;45.92;98466.06;2083209;28;20286;-68
2021/11/28 02:05:23;;;;;;;;;;;;;;;20.23;45.95;98470.47;2083340;28;19971;-67
2021/11/28 02:06:24;;;;;;;;;;;;;;;20.24;45.85;98469.47;2082959;28;20797;-68
2021/11/28 02:07:24;;;;;;;;;;;;;;;20.24;45.89;98472.19;2084586;28;20416;-68
2021/11/28 02:08:25;;;;;;;;;;;;;;;20.24;45.97;98469.47;2083440;28;19909;-68
2021/11/28 02:09:25;;;;;;;;;;;;;;;20.24;45.99;98466.72;2073443;28;19949;-68
2021/11/28 02:10:26;;;;;;;;;;;;;;;20.24;45.74;98466.72;2066256;28;19920;-68
2021/11/28 02:11:26;;;;;;;;;;;;;;;20.24;45.99;98477.66;2074431;28;20390;-67
2021/11/28 02:12:29;;;;;;;;;;;;;;;20.25;46.00;98480.19;2083992;28;19908;-67
2021/11/28 02:13:30;;;;;;;;;;;;;;;20.26;45.96;98481.03;2074186;28;20274;-67
2021/11/28 02:14:30;;;;;;;;;;;;;;;20.25;45.89;98480.19;2081458;28;20355;-67
2021/11/28 02:15:33;;;;;;;;;;;;;;;20.24;45.78;98483.97;2095821;28;19916;-68
2021/11/28 02:16:34;;;;;;;;;;;;;;;20.25;45.93;98482.06;2066312;28;20611;-67
2021/11/28 02:17:35;;;;;;;;;;;;;;;20.26;45.70;98483.75;2070096;28;19920;-67
2021/11/28 02:18:35;;;;;;;;;;;;;;;20.26;45.84;98481.03;2092664;28;19915;-67
2021/11/28 02:19:36;;;;;;;;;;;;;;;20.25;45.72;98485.66;2081725;28;20160;-67
2021/11/28 02:20:44;;;;;;;;;;;;;;;20.26;45.65;98486.50;2081521;28;20123;-67
2021/11/28 02:21:44;;;;;;;;;;;;;;;20.26;45.71;98487.38;2074026;28;20027;-67
2021/11/28 02:22:45;;;;;;;;;;;;;;;20.28;45.95;98495.34;2073531;28;19928;-67
2021/11/28 02:23:45;;;;;;;;;;;;;;;20.26;45.77;98491.97;2079901;28;19934;-68
2021/11/28 02:24:45;;;;;;;;;;;;;;;20.26;45.93;98503.78;2072477;28;19942;-68
2021/11/28 02:25:46;;;;;;;;;;;;;;;20.27;45.75;98489.03;2072610;28;19992;-68
2021/11/28 02:26:46;;;;;;;;;;;;;;;20.27;45.82;98494.53;2073749;28;20840;-68
2021/11/28 02:27:46;;;;;;;;;;;;;;;20.28;45.82;98500.84;2073477;28;20198;-68
2021/11/28 02:28:47;;;;;;;;;;;;;;;20.27;45.63;98493.69;2083023;28;19962;-68
2021/11/28 02:29:47;;;;;;;;;;;;;;;20.28;45.94;98500.84;2082927;28;20288;-68
2021/11/28 02:30:48;;;;;;;;;;;;;;;20.28;45.70;98507.16;2081573;28;20462;-68
2021/11/28 02:31:48;;;;;;;;;;;;;;;20.28;45.68;98506.31;2082833;28;19923;-68
2021/11/28 02:32:49;;;;;;;;;;;;;;;20.27;45.80;98515.56;2072067;28;19967;-68
2021/11/28 02:33:50;;;;;;;;;;;;;;;20.26;45.80;98508.38;2074286;28;20292;-68
2021/11/28 02:34:50;;;;;;;;;;;;;;;20.26;45.76;98508.38;2081010;28;20396;-68
2021/11/28 02:35:50;;;;;;;;;;;;;;;20.25;45.92;98517.66;2082636;28;20707;-68
2021/11/28 02:36:52;;;;;;;;;;;;;;;20.26;45.69;98522.94;2081242;28;21004;-68
2021/11/28 02:37:53;;;;;;;;;;;;;;;20.24;45.81;98510.50;2084268;28;20592;-67
2021/11/28 02:38:53;;;;;;;;;;;;;;;20.24;45.87;98515.97;2081941;28;20323;-68
2021/11/28 02:39:54;;;;;;;;;;;;;;;20.24;45.71;98514.06;2082589;28;20295;-68
2021/11/28 02:40:55;;;;;;;;;;;;;;;20.24;45.83;98515.97;2082870;28;20290;-68
2021/11/28 02:41:55;;;;;;;;;;;;;;;20.23;45.72;98519.72;2081999;28;19919;-67
2021/11/28 02:42:56;;;;;;;;;;;;;;;20.23;45.73;98508.78;2084499;28;19926;-68
2021/11/28 02:43:57;;;;;;;;;;;;;;;20.23;45.75;98511.53;2080666;28;20901;-68
2021/11/28 02:44:57;;;;;;;;;;;;;;;20.22;45.89;98512.56;2083915;28;19994;-68
2021/11/28 02:45:59;;;;;;;;;;;;;;;20.22;45.86;98507.09;2082927;28;19908;-68
2021/11/28 02:47:00;;;;;;;;;;;;;;;20.22;45.71;98512.56;2082256;28;19974;-68
2021/11/28 02:48:02;;;;;;;;;;;;;;;20.23;45.66;98514.25;2073218;28;20058;-68
2021/11/28 02:49:03;;;;;;;;;;;;;;;20.22;45.80;98518.03;2073596;28;20654;-68
2021/11/28 02:50:04;;;;;;;;;;;;;;;20.21;45.87;98511.72;2083500;28;20361;-68
2021/11/28 02:51:05;;;;;;;;;;;;;;;20.22;45.94;98515.31;2084272;28;20733;-68
2021/11/28 02:52:12;;;;;;;;;;;;;;;20.22;45.81;98513.41;2081348;28;20280;-68
2021/11/28 02:53:13;;;;;;;;;;;;;;;20.21;45.88;98511.72;2073757;28;20059;-68
2021/11/28 02:54:14;;;;;;;;;;;;;;;20.21;45.98;98511.72;2075399;28;19913;-68
2021/11/28 02:55:14;;;;;;;;;;;;;;;20.22;45.88;98512.56;2091620;28;19908;-68
2021/11/28 02:56:15;;;;;;;;;;;;;;;20.21;45.82;98516.34;2092886;28;19920;-68
2021/11/28 02:57:15;;;;;;;;;;;;;;;20.22;45.92;98518.88;2082464;28;20353;-68
2021/11/28 02:58:18;;;;;;;;;;;;;;;20.21;45.79;98508.13;2083942;28;19916;-68
2021/11/28 02:59:18;;;;;;;;;;;;;;;20.22;45.76;98512.56;2085933;28;20438;-68
2021/11/28 03:00:19;;;;;;;;;;;;;;;20.20;45.72;98509.19;2083875;28;20367;-68
2021/11/28 03:01:20;;;;;;;;;;;;;;;20.21;45.99;98516.34;2083428;28;19917;-68
2021/11/28 03:02:20;;;;;;;;;;;;;;;20.20;45.87;98511.91;2085851;28;19908;-68
2021/11/28 03:03:21;;;;;;;;;;;;;;;20.20;45.85;98509.19;2083124;28;20215;-68
2021/11/28 03:04:21;;;;;;;;;;;;;;;20.19;45.99;98508.34;2083425;28;20044;-68
2021/11/28 03:05:22;;;;;;;;;;;;;;;20.18;45.96;98503.06;2082164;28;19916;-68
2021/11/28 03:06:22;;;;;;;;;;;;;;;20.17;46.07;98510.41;2084600;28;20350;-68
2021/11/28 03:07:22;;;;;;;;;;;;;;;20.17;46.26;98506.84;2084805;28;20295;-68
2021/11/28 03:08:23;;;;;;;;;;;;;;;20.19;46.00;98512.97;2083860;28;19938;-68
2021/11/28 03:09:23;;;;;;;;;;;;;;;20.18;45.92;98505.78;2083715;28;19973;-67
2021/11/28 03:10:28;;;;;;;;;;;;;;;20.17;45.87;98510.41;2084619;28;21209;-68
2021/11/28 03:11:28;;;;;;;;;;;;;;;20.16;46.04;98507.88;2084317;28;19973;-68
2021/11/28 03:12:29;;;;;;;;;;;;;;;20.14;46.07;98505.34;2084485;28;20174;-68
2021/11/28 03:13:31;;;;;;;;;;;;;;;20.15;45.87;98506.19;2083124;28;19922;-68
2021/11/28 03:14:31;;;;;;;;;;;;;;;20.16;45.91;98507.88;2085518;28;19917;-68
2021/11/28 03:15:31;;;;;;;;;;;;;;;20.16;45.97;98502.41;2083028;28;19917;-68
2021/11/28 03:16:32;;;;;;;;;;;;;;;20.17;46.04;98509.59;2085029;28;20398;-68
2021/11/28 03:17:32;;;;;;;;;;;;;;;20.17;45.96;98501.38;2082051;28;19913;-68
2021/11/28 03:18:33;;;;;;;;;;;;;;;20.17;45.92;98509.59;2085661;28;20306;-68
2021/11/28 03:19:33;;;;;;;;;;;;;;;20.16;46.05;98510.59;2084102;28;19916;-68
2021/11/28 03:20:33;;;;;;;;;;;;;;;20.13;45.88;98507.22;2083678;28;19919;-68
2021/11/28 03:21:34;;;;;;;;;;;;;;;20.15;45.95;98511.66;2084026;28;20312;-65
2021/11/28 03:22:35;;;;;;;;;;;;;;;20.13;46.05;98504.47;2082477;28;20330;-65
2021/11/28 03:23:36;;;;;;;;;;;;;;;20.11;46.29;98506.59;2082820;28;19916;-65
2021/11/28 03:24:36;;;;;;;;;;;;;;;20.12;46.03;98505.53;2084505;28;19916;-65
2021/11/28 03:25:36;;;;;;;;;;;;;;;20.13;46.25;98507.22;2084315;28;20287;-65
2021/11/28 03:26:38;;;;;;;;;;;;;;;20.13;46.04;98509.09;2082541;28;19912;-65
2021/11/28 03:27:38;;;;;;;;;;;;;;;20.12;46.04;98508.28;2084297;28;19913;-65
2021/11/28 03:28:41;;;;;;;;;;;;;;;20.12;46.10;98507.44;2084116;28;19923;-65
2021/11/28 03:29:41;;;;;;;;;;;;;;;20.11;46.07;98501.13;2084077;28;20409;-65
2021/11/28 03:30:43;;;;;;;;;;;;;;;20.11;46.04;98509.31;2083919;28;20303;-65
2021/11/28 03:31:45;;;;;;;;;;;;;;;20.10;46.01;98502.13;2083289;28;20008;-65
2021/11/28 03:32:45;;;;;;;;;;;;;;;20.09;46.17;98503.19;2087340;28;19991;-65
2021/11/28 03:33:46;;;;;;;;;;;;;;;20.09;46.07;98503.19;2084419;28;19912;-65
2021/11/28 03:34:46;;;;;;;;;;;;;;;20.10;46.25;98504.03;2085204;28;20405;-65
2021/11/28 03:35:46;;;;;;;;;;;;;;;20.09;46.23;98508.66;2083930;28;19939;-65
2021/11/28 03:36:49;;;;;;;;;;;;;;;20.08;46.20;98501.47;2087803;28;20042;-65
2021/11/28 03:37:50;;;;;;;;;;;;;;;20.08;46.05;98504.22;2080123;28;19917;-65
2021/11/28 03:38:51;;;;;;;;;;;;;;;20.08;46.10;98501.47;2073551;28;19927;-65
2021/11/28 03:39:55;;;;;;;;;;;;;;;20.08;46.06;98501.47;2072673;28;20007;-65
2021/11/28 03:40:55;;;;;;;;;;;;;;;20.08;46.16;98509.69;2083850;28;19928;-65
2021/11/28 03:42:05;;;;;;;;;;;;;;;20.07;46.09;98508.00;2083300;28;19916;-65
2021/11/28 03:43:05;;;;;;;;;;;;;;;20.07;46.19;98510.75;2086394;28;19928;-65
2021/11/28 03:44:06;;;;;;;;;;;;;;;20.06;46.11;98508.19;2076868;28;19908;-64
2021/11/28 03:45:09;;;;;;;;;;;;;;;20.06;46.27;98510.94;2078773;28;20363;-64
2021/11/28 03:46:09;;;;;;;;;;;;;;;20.05;46.16;98507.34;2084721;28;20251;-64
2021/11/28 03:47:10;;;;;;;;;;;;;;;20.05;46.19;98506.50;2084166;28;19916;-64
2021/11/28 03:48:10;;;;;;;;;;;;;;;20.04;46.24;98508.41;2083916;28;20387;-64
2021/11/28 03:49:10;;;;;;;;;;;;;;;20.04;46.21;98511.13;2083868;28;19916;-64
2021/11/28 03:50:11;;;;;;;;;;;;;;;20.04;46.41;98508.41;2083969;28;19920;-64
2021/11/28 03:51:11;;;;;;;;;;;;;;;20.04;46.41;98511.13;2083593;28;20651;-66
2021/11/28 03:52:11;;;;;;;;;;;;;;;20.03;46.32;98503.97;2084425;28;20635;-64
2021/11/28 03:53:12;;;;;;;;;;;;;;;20.02;46.29;98507.75;2082401;28;20133;-64
2021/11/28 03:54:12;;;;;;;;;;;;;;;20.01;46.37;98506.03;2077634;28;19916;-64
2021/11/28 03:55:15;;;;;;;;;;;;;;;20.00;46.46;98507.09;2082983;28;19920;-64
2021/11/28 03:56:15;;;;;;;;;;;;;;;20.01;46.44;98506.03;2083139;28;19916;-64
2021/11/28 03:57:15;;;;;;;;;;;;;;;20.00;46.26;98507.09;2081702;28;19920;-64
2021/11/28 03:58:16;;;;;;;;;;;;;;;19.99;46.29;98505.41;2082717;28;20654;-64
2021/11/28 03:59:16;;;;;;;;;;;;;;;20.00;46.30;98507.09;2084135;28;20391;-64
2021/11/28 04:00:17;;;;;;;;;;;;;;;20.00;46.27;98503.50;2084040;28;19917;-64
2021/11/28 04:01:18;;;;;;;;;;;;;;;19.99;46.39;98508.16;2084038;28;20007;-64
2021/11/28 04:02:19;;;;;;;;;;;;;;;20.00;46.35;98503.50;2082877;28;20030;-64
2021/11/28 04:03:19;;;;;;;;;;;;;;;19.99;46.37;98507.28;2081739;28;19951;-64
2021/11/28 04:04:19;;;;;;;;;;;;;;;19.98;46.38;98511.91;2084242;28;19923;-64
2021/11/28 04:05:20;;;;;;;;;;;;;;;19.98;46.31;98500.97;2084630;28;20553;-64
2021/11/28 04:06:22;;;;;;;;;;;;;;;19.98;46.22;98511.06;2084455;28;19916;-65
2021/11/28 04:07:22;;;;;;;;;;;;;;;19.97;46.31;98510.22;2083865;28;19912;-64
2021/11/28 04:08:23;;;;;;;;;;;;;;;19.97;46.42;98509.38;2076410;28;20522;-64
2021/11/28 04:09:23;;;;;;;;;;;;;;;19.96;46.41;98519.44;2083284;28;19920;-64
2021/11/28 04:10:23;;;;;;;;;;;;;;;19.94;46.41;98510.59;2082967;28;20174;-64
2021/11/28 04:11:24;;;;;;;;;;;;;;;19.95;46.35;98517.75;2086041;28;20407;-64
2021/11/28 04:12:24;;;;;;;;;;;;;;;19.95;46.34;98517.75;2081673;28;19989;-64
2021/11/28 04:13:25;;;;;;;;;;;;;;;19.94;46.39;98515.22;2084029;28;19966;-64
2021/11/28 04:14:25;;;;;;;;;;;;;;;19.92;46.36;98512.69;2084549;28;19993;-64
2021/11/28 04:15:25;;;;;;;;;;;;;;;19.92;46.36;98519.00;2082277;28;19947;-65
2021/11/28 04:16:25;;;;;;;;;;;;;;;19.91;46.51;98517.28;2084583;28;19912;-64
2021/11/28 04:17:27;;;;;;;;;;;;;;;19.92;46.34;98521.72;2082335;28;19913;-64
2021/11/28 04:18:27;;;;;;;;;;;;;;;19.91;46.50;98521.91;2083202;28;20186;-64
2021/11/28 04:19:27;;;;;;;;;;;;;;;19.89;46.44;98529.47;2084377;28;19913;-64
2021/11/28 04:20:27;;;;;;;;;;;;;;;19.91;46.45;98521.91;2083185;28;20049;-65
2021/11/28 04:21:28;;;;;;;;;;;;;;;19.90;46.50;98514.75;2075203;28;19947;-67
2021/11/28 04:22:28;;;;;;;;;;;;;;;19.89;46.54;98518.53;2075456;28;20527;-67
2021/11/28 04:23:38;;;;;;;;;;;;;;;19.89;46.52;98518.53;2083099;28;19928;-68
2021/11/28 04:24:38;;;;;;;;;;;;;;;19.87;46.46;98512.44;2082447;28;20142;-67
2021/11/28 04:25:38;;;;;;;;;;;;;;;19.87;46.47;98515.16;2084697;28;19927;-67
2021/11/28 04:26:39;;;;;;;;;;;;;;;19.86;46.50;98513.44;2083916;28;19913;-67
2021/11/28 04:27:40;;;;;;;;;;;;;;;19.86;46.54;98527.13;2081998;28;20358;-67
2021/11/28 04:28:41;;;;;;;;;;;;;;;19.86;46.53;98529.84;2083352;28;19922;-67
2021/11/28 04:29:41;;;;;;;;;;;;;;;19.85;46.63;98529.00;2083869;28;20011;-67
2021/11/28 04:30:41;;;;;;;;;;;;;;;19.85;46.65;98528.16;2083743;28;19997;-67
2021/11/28 04:32:00;;;;;;;;;;;;;;;19.84;46.51;98531.94;2084019;28;20356;-67
2021/11/28 04:33:01;;;;;;;;;;;;;;;19.84;46.67;98532.81;2083306;28;20007;-67
2021/11/28 04:34:01;;;;;;;;;;;;;;;19.83;46.67;98527.50;2082501;28;19923;-67
2021/11/28 04:35:02;;;;;;;;;;;;;;;19.83;46.59;98524.78;2084571;28;19962;-68
2021/11/28 04:36:04;;;;;;;;;;;;;;;19.83;46.60;98535.72;2082814;28;19960;-67
2021/11/28 04:37:04;;;;;;;;;;;;;;;19.81;46.69;98527.69;2087723;28;19927;-67
2021/11/28 04:38:05;;;;;;;;;;;;;;;19.81;46.61;98533.16;2084044;28;20842;-68
2021/11/28 04:39:05;;;;;;;;;;;;;;;19.83;46.61;98532.97;2082845;28;20128;-68
2021/11/28 04:40:07;;;;;;;;;;;;;;;19.81;46.71;98532.31;2082994;28;19927;-68
2021/11/28 04:41:07;;;;;;;;;;;;;;;19.80;46.76;98536.09;2084510;28;20044;-68
2021/11/28 04:42:08;;;;;;;;;;;;;;;19.80;46.76;98536.09;2083032;28;19913;-68
2021/11/28 04:43:08;;;;;;;;;;;;;;;19.79;46.66;98529.78;2084917;28;19935;-67
2021/11/28 04:44:08;;;;;;;;;;;;;;;19.79;46.78;98534.41;2082955;28;19916;-68
2021/11/28 04:45:09;;;;;;;;;;;;;;;19.79;46.77;98537.13;2082290;28;20165;-67
2021/11/28 04:46:10;;;;;;;;;;;;;;;19.79;46.80;98539.88;2084066;28;20042;-68
2021/11/28 04:47:10;;;;;;;;;;;;;;;19.78;46.83;98535.44;2083560;28;20365;-68
2021/11/28 04:48:10;;;;;;;;;;;;;;;19.77;46.81;98537.34;2083971;28;20291;-68
2021/11/28 04:49:11;;;;;;;;;;;;;;;19.76;46.87;98535.63;2082325;28;20414;-67
2021/11/28 04:50:12;;;;;;;;;;;;;;;19.75;46.74;98536.69;2084069;28;19917;-68
2021/11/28 04:51:13;;;;;;;;;;;;;;;19.76;46.67;98541.09;2081173;28;20428;-68
2021/11/28 04:52:13;;;;;;;;;;;;;;;19.77;46.84;98541.94;2090040;28;20829;-68
2021/11/28 04:53:14;;;;;;;;;;;;;;;19.75;46.80;98538.56;2091446;28;19915;-68
2021/11/28 04:54:15;;;;;;;;;;;;;;;19.76;46.79;98537.53;2083613;28;20075;-68
2021/11/28 04:55:16;;;;;;;;;;;;;;;19.76;46.78;98543.00;2082921;28;19969;-67
2021/11/28 04:56:16;;;;;;;;;;;;;;;19.75;46.78;98538.56;2083736;28;19908;-68
2021/11/28 04:57:19;;;;;;;;;;;;;;;19.75;46.87;98541.31;2083499;28;19912;-68
2021/11/28 04:58:19;;;;;;;;;;;;;;;19.74;46.87;98542.31;2084209;28;19994;-68
2021/11/28 04:59:20;;;;;;;;;;;;;;;19.73;46.92;98535.19;2086149;28;19967;-68
2021/11/28 05:00:22;;;;;;;;;;;;;;;19.74;46.80;98539.59;2082412;28;19923;-68
2021/11/28 05:01:24;;;;;;;;;;;;;;;19.74;46.97;98545.06;2075236;28;19917;-68
2021/11/28 05:02:24;;;;;;;;;;;;;;;19.70;46.96;98545.44;2072119;28;20051;-68
2021/11/28 05:03:24;;;;;;;;;;;;;;;19.70;46.88;98545.44;2083403;28;20199;-68
2021/11/28 05:04:25;;;;;;;;;;;;;;;19.70;46.91;98548.19;2073504;28;19928;-68
2021/11/28 05:05:26;;;;;;;;;;;;;;;19.70;46.89;98544.63;2075555;28;19909;-68
2021/11/28 05:06:26;;;;;;;;;;;;;;;19.70;46.88;98544.63;2070253;28;20015;-68
2021/11/28 05:07:27;;;;;;;;;;;;;;;19.69;46.92;98548.38;2074430;28;20026;-68
2021/11/28 05:08:27;;;;;;;;;;;;;;;19.69;46.96;98554.69;2074025;28;19908;-68
2021/11/28 05:09:27;;;;;;;;;;;;;;;19.67;46.96;98548.56;2075073;28;20476;-68
2021/11/28 05:10:28;;;;;;;;;;;;;;;19.67;46.91;98553.13;2082577;28;19971;-69
2021/11/28 05:11:28;;;;;;;;;;;;;;;19.65;46.87;98547.88;2085122;28;19981;-68
2021/11/28 05:12:28;;;;;;;;;;;;;;;19.66;46.87;98556.94;2083441;28;19960;-69
2021/11/28 05:13:29;;;;;;;;;;;;;;;19.65;46.89;98555.25;2083093;28;19923;-68
2021/11/28 05:14:29;;;;;;;;;;;;;;;19.65;46.89;98561.56;2082765;28;19917;-67
2021/11/28 05:15:29;;;;;;;;;;;;;;;19.64;46.88;98557.09;2083769;28;19943;-68
2021/11/28 05:16:30;;;;;;;;;;;;;;;19.63;46.86;98563.63;2083102;28;19916;-68
2021/11/28 05:17:30;;;;;;;;;;;;;;;19.62;47.03;98561.94;2084055;28;19916;-67
2021/11/28 05:18:31;;;;;;;;;;;;;;;19.62;47.10;98556.47;2082860;28;19924;-68
2021/11/28 05:19:31;;;;;;;;;;;;;;;19.62;47.05;98561.06;2082422;28;19916;-68
2021/11/28 05:20:32;;;;;;;;;;;;;;;19.60;46.97;98558.53;2083431;28;19923;-68
2021/11/28 05:21:32;;;;;;;;;;;;;;;19.60;47.05;98563.13;2083244;28;19925;-68
2021/11/28 05:22:32;;;;;;;;;;;;;;;19.59;47.05;98562.28;2083442;28;20156;-67
2021/11/28 05:23:33;;;;;;;;;;;;;;;19.59;47.09;98562.28;2083517;28;20470;-68